sensor_id;sensor_type;location;lat;lon;timestamp;P1;durP1;ratioP1;P2;durP2;ratioP2
66521;SDS011;53349;53.538;8.584;2023-04-24T00:01:08;7.60;;;3.87;;
66521;SDS011;53349;53.538;8.584;2023-04-24T00:03:35;6.90;;;3.58;;
66521;SDS011;53349;53.538;8.584;2023-04-24T00:06:01;6.67;;;3.40;;
66521;SDS011;53349;53.538;8.584;2023-04-24T00:08:27;5.07;;;2.97;;
66521;SDS011;53349;53.538;8.584;2023-04-24T00:10:52;5.17;;;3.00;;
66521;SDS011;53349;53.538;8.584;2023-04-24T00:13:18;7.13;;;3.23;;
66521;SDS011;53349;53.538;8.584;2023-04-24T00:15:43;6.05;;;3.40;;
66521;SDS011;53349;53.538;8.584;2023-04-24T00:18:08;5.90;;;3.00;;
66521;SDS011;53349;53.538;8.584;2023-04-24T00:20:34;4.50;;;2.90;;
66521;SDS011;53349;53.538;8.584;2023-04-24T00:22:59;4.90;;;2.83;;
66521;SDS011;53349;53.538;8.584;2023-04-24T00:25:25;5.60;;;2.93;;
66521;SDS011;53349;53.538;8.584;2023-04-24T00:27:50;5.47;;;2.92;;
66521;SDS011;53349;53.538;8.584;2023-04-24T00:30:16;5.40;;;2.50;;
66521;SDS011;53349;53.538;8.584;2023-04-24T00:32:41;4.27;;;2.43;;
66521;SDS011;53349;53.538;8.584;2023-04-24T00:35:08;4.28;;;2.38;;
66521;SDS011;53349;53.538;8.584;2023-04-24T00:37:34;4.50;;;2.17;;
66521;SDS011;53349;53.538;8.584;2023-04-24T00:40:00;6.07;;;2.30;;
66521;SDS011;53349;53.538;8.584;2023-04-24T00:42:25;4.70;;;2.67;;
66521;SDS011;53349;53.538;8.584;2023-04-24T00:44:50;5.13;;;2.47;;
66521;SDS011;53349;53.538;8.584;2023-04-24T00:47:16;4.30;;;2.55;;
66521;SDS011;53349;53.538;8.584;2023-04-24T00:49:44;4.80;;;2.38;;
66521;SDS011;53349;53.538;8.584;2023-04-24T00:52:09;4.07;;;2.33;;
66521;SDS011;53349;53.538;8.584;2023-04-24T00:54:36;4.45;;;2.17;;
66521;SDS011;53349;53.538;8.584;2023-04-24T00:57:05;5.07;;;2.20;;
66521;SDS011;53349;53.538;8.584;2023-04-24T00:59:30;5.90;;;2.40;;
66521;SDS011;53349;53.538;8.584;2023-04-24T01:01:56;4.18;;;2.15;;
66521;SDS011;53349;53.538;8.584;2023-04-24T01:04:24;4.22;;;2.17;;
66521;SDS011;53349;53.538;8.584;2023-04-24T01:06:50;5.47;;;2.17;;
66521;SDS011;53349;53.538;8.584;2023-04-24T01:09:16;4.32;;;2.28;;
66521;SDS011;53349;53.538;8.584;2023-04-24T01:11:42;4.90;;;2.67;;
66521;SDS011;53349;53.538;8.584;2023-04-24T01:14:07;5.38;;;2.50;;
66521;SDS011;53349;53.538;8.584;2023-04-24T01:16:33;6.00;;;3.00;;
66521;SDS011;53349;53.538;8.584;2023-04-24T01:18:58;5.70;;;3.20;;
66521;SDS011;53349;53.538;8.584;2023-04-24T01:21:24;6.32;;;2.53;;
66521;SDS011;53349;53.538;8.584;2023-04-24T01:23:52;4.82;;;2.60;;
66521;SDS011;53349;53.538;8.584;2023-04-24T01:26:17;5.03;;;2.25;;
66521;SDS011;53349;53.538;8.584;2023-04-24T01:28:43;4.43;;;2.40;;
66521;SDS011;53349;53.538;8.584;2023-04-24T01:31:08;3.60;;;2.13;;
66521;SDS011;53349;53.538;8.584;2023-04-24T01:33:33;5.67;;;2.30;;
66521;SDS011;53349;53.538;8.584;2023-04-24T01:35:59;3.53;;;2.10;;
66521;SDS011;53349;53.538;8.584;2023-04-24T01:38:24;3.47;;;2.00;;
66521;SDS011;53349;53.538;8.584;2023-04-24T01:40:50;4.40;;;1.80;;
66521;SDS011;53349;53.538;8.584;2023-04-24T01:43:16;3.00;;;1.70;;
66521;SDS011;53349;53.538;8.584;2023-04-24T01:45:41;3.43;;;1.80;;
66521;SDS011;53349;53.538;8.584;2023-04-24T01:48:07;2.70;;;1.40;;
66521;SDS011;53349;53.538;8.584;2023-04-24T01:50:32;2.93;;;1.53;;
66521;SDS011;53349;53.538;8.584;2023-04-24T01:52:57;3.00;;;1.57;;
66521;SDS011;53349;53.538;8.584;2023-04-24T01:55:23;3.67;;;1.70;;
66521;SDS011;53349;53.538;8.584;2023-04-24T01:57:48;3.13;;;1.77;;
66521;SDS011;53349;53.538;8.584;2023-04-24T02:00:14;3.05;;;1.80;;
66521;SDS011;53349;53.538;8.584;2023-04-24T02:02:40;3.17;;;1.70;;
66521;SDS011;53349;53.538;8.584;2023-04-24T02:05:06;3.80;;;1.70;;
66521;SDS011;53349;53.538;8.584;2023-04-24T02:07:32;3.10;;;1.70;;
66521;SDS011;53349;53.538;8.584;2023-04-24T02:09:58;3.10;;;1.80;;
66521;SDS011;53349;53.538;8.584;2023-04-24T02:12:25;4.00;;;1.80;;
66521;SDS011;53349;53.538;8.584;2023-04-24T02:14:51;3.53;;;1.90;;
66521;SDS011;53349;53.538;8.584;2023-04-24T02:17:16;3.50;;;2.10;;
66521;SDS011;53349;53.538;8.584;2023-04-24T02:19:42;3.50;;;1.90;;
66521;SDS011;53349;53.538;8.584;2023-04-24T02:22:09;4.07;;;2.10;;
66521;SDS011;53349;53.538;8.584;2023-04-24T02:24:36;4.13;;;1.92;;
66521;SDS011;53349;53.538;8.584;2023-04-24T02:27:03;3.50;;;2.08;;
66521;SDS011;53349;53.538;8.584;2023-04-24T02:29:29;5.38;;;2.13;;
66521;SDS011;53349;53.538;8.584;2023-04-24T02:31:55;3.83;;;2.38;;
66521;SDS011;53349;53.538;8.584;2023-04-24T02:34:21;4.70;;;2.50;;
66521;SDS011;53349;53.538;8.584;2023-04-24T02:36:46;4.20;;;2.60;;
66521;SDS011;53349;53.538;8.584;2023-04-24T02:39:12;4.75;;;3.03;;
66521;SDS011;53349;53.538;8.584;2023-04-24T02:41:37;5.77;;;2.90;;
66521;SDS011;53349;53.538;8.584;2023-04-24T02:44:04;4.30;;;2.80;;
66521;SDS011;53349;53.538;8.584;2023-04-24T02:46:29;4.60;;;3.08;;
66521;SDS011;53349;53.538;8.584;2023-04-24T02:48:56;5.75;;;3.10;;
66521;SDS011;53349;53.538;8.584;2023-04-24T02:51:21;5.23;;;3.17;;
66521;SDS011;53349;53.538;8.584;2023-04-24T02:53:47;5.80;;;3.50;;
66521;SDS011;53349;53.538;8.584;2023-04-24T02:56:12;5.10;;;3.60;;
66521;SDS011;53349;53.538;8.584;2023-04-24T02:58:39;7.00;;;3.88;;
66521;SDS011;53349;53.538;8.584;2023-04-24T03:01:07;6.20;;;3.90;;
66521;SDS011;53349;53.538;8.584;2023-04-24T03:03:33;6.60;;;4.55;;
66521;SDS011;53349;53.538;8.584;2023-04-24T03:06:00;6.57;;;4.45;;
66521;SDS011;53349;53.538;8.584;2023-04-24T03:08:25;6.93;;;4.40;;
66521;SDS011;53349;53.538;8.584;2023-04-24T03:10:52;7.53;;;4.28;;
66521;SDS011;53349;53.538;8.584;2023-04-24T03:13:22;6.75;;;4.57;;
66521;SDS011;53349;53.538;8.584;2023-04-24T03:15:48;6.47;;;4.03;;
66521;SDS011;53349;53.538;8.584;2023-04-24T03:18:15;6.75;;;4.40;;
66521;SDS011;53349;53.538;8.584;2023-04-24T03:20:41;7.53;;;4.35;;
66521;SDS011;53349;53.538;8.584;2023-04-24T03:23:07;7.80;;;4.33;;
66521;SDS011;53349;53.538;8.584;2023-04-24T03:25:32;6.95;;;4.38;;
66521;SDS011;53349;53.538;8.584;2023-04-24T03:27:58;7.23;;;4.60;;
66521;SDS011;53349;53.538;8.584;2023-04-24T03:30:23;7.37;;;4.40;;
66521;SDS011;53349;53.538;8.584;2023-04-24T03:32:49;6.20;;;3.93;;
66521;SDS011;53349;53.538;8.584;2023-04-24T03:35:15;7.40;;;4.05;;
66521;SDS011;53349;53.538;8.584;2023-04-24T03:37:40;6.73;;;3.57;;
66521;SDS011;53349;53.538;8.584;2023-04-24T03:40:06;6.20;;;3.57;;
66521;SDS011;53349;53.538;8.584;2023-04-24T03:42:32;6.15;;;3.70;;
66521;SDS011;53349;53.538;8.584;2023-04-24T03:44:57;6.97;;;4.00;;
66521;SDS011;53349;53.538;8.584;2023-04-24T03:47:23;6.10;;;3.70;;
66521;SDS011;53349;53.538;8.584;2023-04-24T03:49:48;5.63;;;3.37;;
66521;SDS011;53349;53.538;8.584;2023-04-24T03:52:14;7.27;;;4.03;;
66521;SDS011;53349;53.538;8.584;2023-04-24T03:54:39;7.43;;;4.27;;
66521;SDS011;53349;53.538;8.584;2023-04-24T03:57:04;7.00;;;3.87;;
66521;SDS011;53349;53.538;8.584;2023-04-24T03:59:31;7.43;;;3.67;;
66521;SDS011;53349;53.538;8.584;2023-04-24T04:01:57;7.00;;;3.70;;
66521;SDS011;53349;53.538;8.584;2023-04-24T04:04:22;6.40;;;3.27;;
66521;SDS011;53349;53.538;8.584;2023-04-24T04:06:47;7.15;;;3.75;;
66521;SDS011;53349;53.538;8.584;2023-04-24T04:09:13;6.37;;;4.00;;
66521;SDS011;53349;53.538;8.584;2023-04-24T04:11:38;9.07;;;3.87;;
66521;SDS011;53349;53.538;8.584;2023-04-24T04:14:04;6.77;;;4.37;;
66521;SDS011;53349;53.538;8.584;2023-04-24T04:16:29;8.52;;;4.72;;
66521;SDS011;53349;53.538;8.584;2023-04-24T04:18:55;9.53;;;5.40;;
66521;SDS011;53349;53.538;8.584;2023-04-24T04:21:20;8.80;;;5.10;;
66521;SDS011;53349;53.538;8.584;2023-04-24T04:23:46;8.90;;;5.00;;
66521;SDS011;53349;53.538;8.584;2023-04-24T04:26:11;9.17;;;5.13;;
66521;SDS011;53349;53.538;8.584;2023-04-24T04:28:37;9.20;;;5.03;;
66521;SDS011;53349;53.538;8.584;2023-04-24T04:31:02;8.63;;;4.97;;
66521;SDS011;53349;53.538;8.584;2023-04-24T04:33:28;9.27;;;5.20;;
66521;SDS011;53349;53.538;8.584;2023-04-24T04:35:53;8.83;;;5.40;;
66521;SDS011;53349;53.538;8.584;2023-04-24T04:38:30;9.15;;;5.22;;
66521;SDS011;53349;53.538;8.584;2023-04-24T04:40:55;7.93;;;4.50;;
66521;SDS011;53349;53.538;8.584;2023-04-24T04:43:21;7.63;;;3.97;;
66521;SDS011;53349;53.538;8.584;2023-04-24T04:45:46;8.77;;;4.75;;
66521;SDS011;53349;53.538;8.584;2023-04-24T04:48:12;7.45;;;4.60;;
66521;SDS011;53349;53.538;8.584;2023-04-24T04:50:38;7.93;;;4.40;;
66521;SDS011;53349;53.538;8.584;2023-04-24T04:53:03;9.18;;;4.90;;
66521;SDS011;53349;53.538;8.584;2023-04-24T04:55:29;8.33;;;4.93;;
66521;SDS011;53349;53.538;8.584;2023-04-24T04:57:55;8.65;;;5.00;;
66521;SDS011;53349;53.538;8.584;2023-04-24T05:00:20;8.57;;;4.80;;
66521;SDS011;53349;53.538;8.584;2023-04-24T05:02:46;8.53;;;4.63;;
66521;SDS011;53349;53.538;8.584;2023-04-24T05:05:12;7.68;;;4.55;;
66521;SDS011;53349;53.538;8.584;2023-04-24T05:07:39;9.30;;;5.28;;
66521;SDS011;53349;53.538;8.584;2023-04-24T05:10:04;8.93;;;4.50;;
66521;SDS011;53349;53.538;8.584;2023-04-24T05:12:34;9.13;;;5.00;;
66521;SDS011;53349;53.538;8.584;2023-04-24T05:15:10;8.98;;;4.50;;
66521;SDS011;53349;53.538;8.584;2023-04-24T05:17:36;8.50;;;5.27;;
66521;SDS011;53349;53.538;8.584;2023-04-24T05:20:02;8.57;;;4.75;;
66521;SDS011;53349;53.538;8.584;2023-04-24T05:22:28;10.10;;;4.68;;
66521;SDS011;53349;53.538;8.584;2023-04-24T05:24:57;9.70;;;5.22;;
66521;SDS011;53349;53.538;8.584;2023-04-24T05:27:24;8.73;;;4.97;;
66521;SDS011;53349;53.538;8.584;2023-04-24T05:29:49;9.20;;;4.60;;
66521;SDS011;53349;53.538;8.584;2023-04-24T05:32:15;8.00;;;4.60;;
66521;SDS011;53349;53.538;8.584;2023-04-24T05:34:41;8.15;;;4.50;;
66521;SDS011;53349;53.538;8.584;2023-04-24T05:37:07;7.97;;;4.43;;
66521;SDS011;53349;53.538;8.584;2023-04-24T05:39:33;9.80;;;5.03;;
66521;SDS011;53349;53.538;8.584;2023-04-24T05:41:58;8.87;;;4.90;;
66521;SDS011;53349;53.538;8.584;2023-04-24T05:44:24;9.27;;;5.07;;
66521;SDS011;53349;53.538;8.584;2023-04-24T05:46:52;7.47;;;4.60;;
66521;SDS011;53349;53.538;8.584;2023-04-24T05:49:18;8.73;;;4.90;;
66521;SDS011;53349;53.538;8.584;2023-04-24T05:51:43;8.15;;;4.70;;
66521;SDS011;53349;53.538;8.584;2023-04-24T05:54:09;8.77;;;4.67;;
66521;SDS011;53349;53.538;8.584;2023-04-24T05:56:34;8.47;;;4.50;;
66521;SDS011;53349;53.538;8.584;2023-04-24T05:58:59;9.40;;;4.73;;
66521;SDS011;53349;53.538;8.584;2023-04-24T06:01:25;8.93;;;5.03;;
66521;SDS011;53349;53.538;8.584;2023-04-24T06:03:52;8.77;;;4.75;;
66521;SDS011;53349;53.538;8.584;2023-04-24T06:06:17;8.13;;;4.45;;
66521;SDS011;53349;53.538;8.584;2023-04-24T06:08:44;10.23;;;5.07;;
66521;SDS011;53349;53.538;8.584;2023-04-24T06:11:10;9.95;;;4.95;;
66521;SDS011;53349;53.538;8.584;2023-04-24T06:13:36;10.63;;;5.03;;
66521;SDS011;53349;53.538;8.584;2023-04-24T06:16:02;7.97;;;4.70;;
66521;SDS011;53349;53.538;8.584;2023-04-24T06:18:27;8.70;;;4.87;;
66521;SDS011;53349;53.538;8.584;2023-04-24T06:20:53;9.90;;;4.93;;
66521;SDS011;53349;53.538;8.584;2023-04-24T06:23:19;8.23;;;4.75;;
66521;SDS011;53349;53.538;8.584;2023-04-24T06:25:47;8.57;;;4.63;;
66521;SDS011;53349;53.538;8.584;2023-04-24T06:28:15;9.88;;;4.85;;
66521;SDS011;53349;53.538;8.584;2023-04-24T06:30:44;9.57;;;4.78;;
66521;SDS011;53349;53.538;8.584;2023-04-24T06:33:10;9.17;;;4.87;;
66521;SDS011;53349;53.538;8.584;2023-04-24T06:35:36;10.90;;;5.15;;
66521;SDS011;53349;53.538;8.584;2023-04-24T06:38:02;10.60;;;4.70;;
66521;SDS011;53349;53.538;8.584;2023-04-24T06:40:29;8.73;;;4.82;;
66521;SDS011;53349;53.538;8.584;2023-04-24T06:42:55;8.73;;;4.43;;
66521;SDS011;53349;53.538;8.584;2023-04-24T06:45:21;8.73;;;4.37;;
66521;SDS011;53349;53.538;8.584;2023-04-24T06:47:46;8.30;;;4.37;;
66521;SDS011;53349;53.538;8.584;2023-04-24T06:50:12;8.55;;;4.63;;
66521;SDS011;53349;53.538;8.584;2023-04-24T06:52:38;9.67;;;4.27;;
66521;SDS011;53349;53.538;8.584;2023-04-24T06:55:04;8.48;;;4.60;;
66521;SDS011;53349;53.538;8.584;2023-04-24T06:57:31;8.98;;;4.50;;
66521;SDS011;53349;53.538;8.584;2023-04-24T06:59:56;7.57;;;4.10;;
66521;SDS011;53349;53.538;8.584;2023-04-24T07:02:22;8.93;;;4.43;;
66521;SDS011;53349;53.538;8.584;2023-04-24T07:04:48;8.88;;;4.75;;
66521;SDS011;53349;53.538;8.584;2023-04-24T07:07:13;9.20;;;4.50;;
66521;SDS011;53349;53.538;8.584;2023-04-24T07:09:39;10.65;;;4.82;;
66521;SDS011;53349;53.538;8.584;2023-04-24T07:12:05;9.30;;;4.60;;
66521;SDS011;53349;53.538;8.584;2023-04-24T07:14:30;10.10;;;5.00;;
66521;SDS011;53349;53.538;8.584;2023-04-24T07:16:56;10.45;;;4.70;;
66521;SDS011;53349;53.538;8.584;2023-04-24T07:19:21;9.37;;;4.63;;
66521;SDS011;53349;53.538;8.584;2023-04-24T07:21:47;10.73;;;4.63;;
66521;SDS011;53349;53.538;8.584;2023-04-24T07:24:15;10.03;;;5.10;;
66521;SDS011;53349;53.538;8.584;2023-04-24T07:26:41;8.65;;;4.70;;
66521;SDS011;53349;53.538;8.584;2023-04-24T07:29:07;8.30;;;4.90;;
66521;SDS011;53349;53.538;8.584;2023-04-24T07:31:33;9.10;;;4.72;;
66521;SDS011;53349;53.538;8.584;2023-04-24T07:34:01;8.15;;;4.75;;
66521;SDS011;53349;53.538;8.584;2023-04-24T07:36:27;8.98;;;4.60;;
66521;SDS011;53349;53.538;8.584;2023-04-24T07:51:51;8.23;;;4.13;;
66521;SDS011;53349;53.538;8.584;2023-04-24T07:54:17;8.27;;;4.17;;
66521;SDS011;53349;53.538;8.584;2023-04-24T07:56:43;9.52;;;4.22;;
66521;SDS011;53349;53.538;8.584;2023-04-24T07:59:09;9.60;;;4.53;;
66521;SDS011;53349;53.538;8.584;2023-04-24T08:01:35;9.52;;;4.72;;
66521;SDS011;53349;53.538;8.584;2023-04-24T08:04:02;8.77;;;4.97;;
66521;SDS011;53349;53.538;8.584;2023-04-24T08:06:28;10.27;;;5.00;;
66521;SDS011;53349;53.538;8.584;2023-04-24T08:08:54;8.65;;;4.72;;
66521;SDS011;53349;53.538;8.584;2023-04-24T08:11:19;9.90;;;4.33;;
66521;SDS011;53349;53.538;8.584;2023-04-24T08:13:45;9.07;;;4.40;;
66521;SDS011;53349;53.538;8.584;2023-04-24T08:16:11;7.00;;;3.58;;
66521;SDS011;53349;53.538;8.584;2023-04-24T08:18:37;8.50;;;4.18;;
66521;SDS011;53349;53.538;8.584;2023-04-24T08:21:04;9.20;;;4.23;;
66521;SDS011;53349;53.538;8.584;2023-04-24T08:23:31;8.55;;;4.70;;
66521;SDS011;53349;53.538;8.584;2023-04-24T08:25:56;8.40;;;4.37;;
66521;SDS011;53349;53.538;8.584;2023-04-24T08:28:21;9.13;;;5.43;;
66521;SDS011;53349;53.538;8.584;2023-04-24T08:30:48;12.75;;;5.32;;
66521;SDS011;53349;53.538;8.584;2023-04-24T08:33:14;9.77;;;5.47;;
66521;SDS011;53349;53.538;8.584;2023-04-24T08:35:39;9.18;;;5.20;;
66521;SDS011;53349;53.538;8.584;2023-04-24T08:38:05;9.33;;;5.13;;
66521;SDS011;53349;53.538;8.584;2023-04-24T08:40:34;10.52;;;5.80;;
66521;SDS011;53349;53.538;8.584;2023-04-24T08:42:59;11.17;;;5.37;;
66521;SDS011;53349;53.538;8.584;2023-04-24T08:45:26;8.50;;;4.70;;
66521;SDS011;53349;53.538;8.584;2023-04-24T08:47:52;9.75;;;5.25;;
66521;SDS011;53349;53.538;8.584;2023-04-24T08:50:18;9.27;;;4.53;;
66521;SDS011;53349;53.538;8.584;2023-04-24T08:52:44;9.37;;;4.70;;
66521;SDS011;53349;53.538;8.584;2023-04-24T08:55:10;9.35;;;5.05;;
66521;SDS011;53349;53.538;8.584;2023-04-24T08:57:36;9.25;;;5.15;;
66521;SDS011;53349;53.538;8.584;2023-04-24T09:00:02;9.87;;;5.17;;
66521;SDS011;53349;53.538;8.584;2023-04-24T09:02:27;9.17;;;5.00;;
66521;SDS011;53349;53.538;8.584;2023-04-24T09:04:53;11.10;;;5.20;;
66521;SDS011;53349;53.538;8.584;2023-04-24T09:07:22;11.48;;;5.15;;
66521;SDS011;53349;53.538;8.584;2023-04-24T09:09:53;9.95;;;4.97;;
66521;SDS011;53349;53.538;8.584;2023-04-24T09:12:21;9.85;;;5.63;;
66521;SDS011;53349;53.538;8.584;2023-04-24T09:14:47;11.55;;;5.38;;
66521;SDS011;53349;53.538;8.584;2023-04-24T09:17:13;13.15;;;5.25;;
66521;SDS011;53349;53.538;8.584;2023-04-24T09:19:39;8.37;;;5.30;;
66521;SDS011;53349;53.538;8.584;2023-04-24T09:22:05;9.48;;;5.07;;
66521;SDS011;53349;53.538;8.584;2023-04-24T09:24:31;8.43;;;4.90;;
66521;SDS011;53349;53.538;8.584;2023-04-24T09:26:57;10.63;;;5.00;;
66521;SDS011;53349;53.538;8.584;2023-04-24T09:29:23;12.18;;;5.20;;
66521;SDS011;53349;53.538;8.584;2023-04-24T09:31:50;10.18;;;4.53;;
66521;SDS011;53349;53.538;8.584;2023-04-24T09:34:20;9.30;;;4.75;;
66521;SDS011;53349;53.538;8.584;2023-04-24T09:36:47;8.60;;;4.55;;
66521;SDS011;53349;53.538;8.584;2023-04-24T09:39:14;9.75;;;5.05;;
66521;SDS011;53349;53.538;8.584;2023-04-24T09:41:50;8.43;;;4.53;;
66521;SDS011;53349;53.538;8.584;2023-04-24T09:46:49;9.02;;;4.28;;
66521;SDS011;53349;53.538;8.584;2023-04-24T09:49:16;11.43;;;5.65;;
66521;SDS011;53349;53.538;8.584;2023-04-24T09:51:47;11.52;;;5.82;;
66521;SDS011;53349;53.538;8.584;2023-04-24T09:54:14;10.43;;;5.17;;
66521;SDS011;53349;53.538;8.584;2023-04-24T09:56:44;10.35;;;5.22;;
66521;SDS011;53349;53.538;8.584;2023-04-24T09:59:11;11.05;;;5.13;;
66521;SDS011;53349;53.538;8.584;2023-04-24T10:01:37;9.70;;;5.43;;
66521;SDS011;53349;53.538;8.584;2023-04-24T10:04:03;10.18;;;5.35;;
66521;SDS011;53349;53.538;8.584;2023-04-24T10:06:35;8.43;;;4.97;;
66521;SDS011;53349;53.538;8.584;2023-04-24T10:09:02;13.00;;;5.47;;
66521;SDS011;53349;53.538;8.584;2023-04-24T10:11:27;10.48;;;5.10;;
66521;SDS011;53349;53.538;8.584;2023-04-24T10:13:53;8.73;;;4.97;;
66521;SDS011;53349;53.538;8.584;2023-04-24T10:16:19;9.13;;;4.88;;
66521;SDS011;53349;53.538;8.584;2023-04-24T10:18:47;10.20;;;4.90;;
66521;SDS011;53349;53.538;8.584;2023-04-24T10:21:14;9.57;;;4.90;;
66521;SDS011;53349;53.538;8.584;2023-04-24T10:23:40;8.57;;;4.80;;
66521;SDS011;53349;53.538;8.584;2023-04-24T10:26:08;9.75;;;5.00;;
66521;SDS011;53349;53.538;8.584;2023-04-24T10:28:35;10.38;;;5.50;;
66521;SDS011;53349;53.538;8.584;2023-04-24T10:31:02;9.15;;;4.60;;
66521;SDS011;53349;53.538;8.584;2023-04-24T10:33:29;8.67;;;4.73;;
66521;SDS011;53349;53.538;8.584;2023-04-24T10:35:55;9.55;;;4.57;;
66521;SDS011;53349;53.538;8.584;2023-04-24T10:38:22;10.27;;;4.88;;
66521;SDS011;53349;53.538;8.584;2023-04-24T10:40:50;8.75;;;4.57;;
66521;SDS011;53349;53.538;8.584;2023-04-24T10:43:16;10.50;;;5.20;;
66521;SDS011;53349;53.538;8.584;2023-04-24T10:45:42;10.45;;;4.90;;
66521;SDS011;53349;53.538;8.584;2023-04-24T10:48:29;10.05;;;5.38;;
66521;SDS011;53349;53.538;8.584;2023-04-24T10:50:54;9.30;;;4.87;;
66521;SDS011;53349;53.538;8.584;2023-04-24T10:53:27;7.88;;;4.25;;
66521;SDS011;53349;53.538;8.584;2023-04-24T10:56:06;9.38;;;4.57;;
66521;SDS011;53349;53.538;8.584;2023-04-24T10:58:37;11.40;;;4.93;;
66521;SDS011;53349;53.538;8.584;2023-04-24T11:01:03;9.65;;;5.28;;
66521;SDS011;53349;53.538;8.584;2023-04-24T11:03:29;9.73;;;5.07;;
66521;SDS011;53349;53.538;8.584;2023-04-24T11:08:28;10.60;;;5.25;;
66521;SDS011;53349;53.538;8.584;2023-04-24T11:13:27;10.05;;;5.35;;
66521;SDS011;53349;53.538;8.584;2023-04-24T11:19:07;10.23;;;4.80;;
66521;SDS011;53349;53.538;8.584;2023-04-24T11:21:48;10.48;;;5.43;;
66521;SDS011;53349;53.538;8.584;2023-04-24T11:29:39;11.55;;;5.63;;
66521;SDS011;53349;53.538;8.584;2023-04-24T11:32:27;10.07;;;5.50;;
66521;SDS011;53349;53.538;8.584;2023-04-24T11:34:53;10.05;;;5.10;;
66521;SDS011;53349;53.538;8.584;2023-04-24T11:37:21;9.05;;;4.78;;
66521;SDS011;53349;53.538;8.584;2023-04-24T11:39:49;8.85;;;4.35;;
66521;SDS011;53349;53.538;8.584;2023-04-24T11:42:18;9.00;;;4.03;;
66521;SDS011;53349;53.538;8.584;2023-04-24T11:44:45;9.45;;;4.72;;
66521;SDS011;53349;53.538;8.584;2023-04-24T11:47:11;8.30;;;4.63;;
66521;SDS011;53349;53.538;8.584;2023-04-24T11:49:37;10.10;;;4.60;;
66521;SDS011;53349;53.538;8.584;2023-04-24T11:52:04;9.00;;;4.72;;
66521;SDS011;53349;53.538;8.584;2023-04-24T11:54:30;9.60;;;4.30;;
66521;SDS011;53349;53.538;8.584;2023-04-24T11:56:55;9.23;;;4.63;;
66521;SDS011;53349;53.538;8.584;2023-04-24T11:59:21;12.73;;;5.97;;
66521;SDS011;53349;53.538;8.584;2023-04-24T12:01:47;10.53;;;4.40;;
66521;SDS011;53349;53.538;8.584;2023-04-24T12:04:13;7.30;;;3.55;;
66521;SDS011;53349;53.538;8.584;2023-04-24T12:09:28;8.38;;;4.20;;
66521;SDS011;53349;53.538;8.584;2023-04-24T12:12:37;7.97;;;3.92;;
66521;SDS011;53349;53.538;8.584;2023-04-24T12:15:07;5.97;;;3.03;;
66521;SDS011;53349;53.538;8.584;2023-04-24T12:17:56;5.03;;;2.00;;
66521;SDS011;53349;53.538;8.584;2023-04-24T12:20:28;5.50;;;2.08;;
66521;SDS011;53349;53.538;8.584;2023-04-24T12:22:57;6.82;;;2.60;;
66521;SDS011;53349;53.538;8.584;2023-04-24T12:25:25;8.27;;;4.20;;
66521;SDS011;53349;53.538;8.584;2023-04-24T12:28:16;10.70;;;4.78;;
66521;SDS011;53349;53.538;8.584;2023-04-24T12:30:44;12.57;;;5.25;;
66521;SDS011;53349;53.538;8.584;2023-04-24T12:33:12;15.02;;;6.78;;
66521;SDS011;53349;53.538;8.584;2023-04-24T12:35:39;14.52;;;6.10;;
66521;SDS011;53349;53.538;8.584;2023-04-24T12:38:16;16.23;;;6.47;;
66521;SDS011;53349;53.538;8.584;2023-04-24T12:40:41;14.27;;;5.37;;
66521;SDS011;53349;53.538;8.584;2023-04-24T12:43:17;16.30;;;6.22;;
66521;SDS011;53349;53.538;8.584;2023-04-24T12:45:44;13.75;;;5.80;;
66521;SDS011;53349;53.538;8.584;2023-04-24T12:48:09;12.67;;;6.47;;
66521;SDS011;53349;53.538;8.584;2023-04-24T12:50:35;22.23;;;7.90;;
66521;SDS011;53349;53.538;8.584;2023-04-24T12:53:00;17.60;;;7.20;;
66521;SDS011;53349;53.538;8.584;2023-04-24T12:55:26;15.60;;;7.20;;
66521;SDS011;53349;53.538;8.584;2023-04-24T12:58:00;15.37;;;6.80;;
66521;SDS011;53349;53.538;8.584;2023-04-24T13:00:38;15.95;;;6.55;;
66521;SDS011;53349;53.538;8.584;2023-04-24T13:03:05;18.08;;;6.85;;
66521;SDS011;53349;53.538;8.584;2023-04-24T13:05:30;20.80;;;7.00;;
66521;SDS011;53349;53.538;8.584;2023-04-24T13:07:56;19.80;;;7.10;;
66521;SDS011;53349;53.538;8.584;2023-04-24T13:10:22;22.30;;;8.50;;
66521;SDS011;53349;53.538;8.584;2023-04-24T13:12:48;23.48;;;8.60;;
66521;SDS011;53349;53.538;8.584;2023-04-24T13:15:14;18.70;;;7.50;;
66521;SDS011;53349;53.538;8.584;2023-04-24T13:17:39;14.77;;;6.80;;
66521;SDS011;53349;53.538;8.584;2023-04-24T13:20:05;18.13;;;7.63;;
66521;SDS011;53349;53.538;8.584;2023-04-24T13:22:30;15.90;;;7.60;;
66521;SDS011;53349;53.538;8.584;2023-04-24T13:24:56;17.37;;;7.80;;
66521;SDS011;53349;53.538;8.584;2023-04-24T13:27:21;14.98;;;7.50;;
66521;SDS011;53349;53.538;8.584;2023-04-24T13:29:46;18.00;;;8.20;;
66521;SDS011;53349;53.538;8.584;2023-04-24T13:32:12;15.73;;;7.67;;
66521;SDS011;53349;53.538;8.584;2023-04-24T13:34:37;17.27;;;7.37;;
66521;SDS011;53349;53.538;8.584;2023-04-24T13:37:04;15.80;;;7.47;;
66521;SDS011;53349;53.538;8.584;2023-04-24T13:39:30;16.95;;;7.25;;
66521;SDS011;53349;53.538;8.584;2023-04-24T13:41:56;17.98;;;7.18;;
66521;SDS011;53349;53.538;8.584;2023-04-24T13:44:22;19.65;;;7.55;;
66521;SDS011;53349;53.538;8.584;2023-04-24T13:46:48;19.52;;;8.48;;
66521;SDS011;53349;53.538;8.584;2023-04-24T13:49:15;21.38;;;7.35;;
66521;SDS011;53349;53.538;8.584;2023-04-24T13:51:41;18.38;;;7.28;;
66521;SDS011;53349;53.538;8.584;2023-04-24T13:54:07;20.67;;;7.45;;
66521;SDS011;53349;53.538;8.584;2023-04-24T13:56:33;17.27;;;7.05;;
66521;SDS011;53349;53.538;8.584;2023-04-24T13:58:58;16.20;;;6.82;;
66521;SDS011;53349;53.538;8.584;2023-04-24T14:01:24;17.95;;;6.95;;
66521;SDS011;53349;53.538;8.584;2023-04-24T14:03:49;15.40;;;6.83;;
66521;SDS011;53349;53.538;8.584;2023-04-24T14:06:15;17.85;;;6.47;;
66521;SDS011;53349;53.538;8.584;2023-04-24T14:08:41;16.60;;;5.97;;
66521;SDS011;53349;53.538;8.584;2023-04-24T14:11:07;14.45;;;5.82;;
66521;SDS011;53349;53.538;8.584;2023-04-24T14:13:32;17.17;;;6.17;;
66521;SDS011;53349;53.538;8.584;2023-04-24T14:15:58;17.43;;;6.57;;
66521;SDS011;53349;53.538;8.584;2023-04-24T14:18:23;18.20;;;6.75;;
66521;SDS011;53349;53.538;8.584;2023-04-24T14:20:48;14.43;;;6.30;;
66521;SDS011;53349;53.538;8.584;2023-04-24T14:23:14;17.80;;;6.23;;
66521;SDS011;53349;53.538;8.584;2023-04-24T14:25:40;14.40;;;5.17;;
66521;SDS011;53349;53.538;8.584;2023-04-24T14:28:06;14.90;;;5.57;;
66521;SDS011;53349;53.538;8.584;2023-04-24T14:30:31;12.67;;;5.57;;
66521;SDS011;53349;53.538;8.584;2023-04-24T14:32:57;16.87;;;5.53;;
66521;SDS011;53349;53.538;8.584;2023-04-24T14:35:22;16.00;;;5.37;;
66521;SDS011;53349;53.538;8.584;2023-04-24T14:37:47;12.93;;;5.60;;
66521;SDS011;53349;53.538;8.584;2023-04-24T14:40:13;12.50;;;5.33;;
66521;SDS011;53349;53.538;8.584;2023-04-24T14:42:38;13.87;;;6.10;;
66521;SDS011;53349;53.538;8.584;2023-04-24T14:45:03;15.17;;;6.23;;
66521;SDS011;53349;53.538;8.584;2023-04-24T14:47:29;14.13;;;5.80;;
66521;SDS011;53349;53.538;8.584;2023-04-24T14:49:54;10.05;;;5.28;;
66521;SDS011;53349;53.538;8.584;2023-04-24T14:52:20;14.27;;;5.37;;
66521;SDS011;53349;53.538;8.584;2023-04-24T14:54:46;11.13;;;5.13;;
66521;SDS011;53349;53.538;8.584;2023-04-24T14:57:13;14.48;;;5.15;;
66521;SDS011;53349;53.538;8.584;2023-04-24T14:59:38;14.03;;;6.07;;
66521;SDS011;53349;53.538;8.584;2023-04-24T15:02:04;14.23;;;5.63;;
66521;SDS011;53349;53.538;8.584;2023-04-24T15:04:29;22.00;;;6.13;;
66521;SDS011;53349;53.538;8.584;2023-04-24T15:06:54;16.43;;;6.07;;
66521;SDS011;53349;53.538;8.584;2023-04-24T15:09:20;16.08;;;6.47;;
66521;SDS011;53349;53.538;8.584;2023-04-24T15:11:47;16.85;;;6.82;;